Main page
METAR-TAF:

METAR-TAF

Airports :

Islay, Scotland

Islay Airport

latitude: 55-40-55N, longitude: 006-15-24W, elevation: 16 m

Current weather observation

The report was made 36 minutes ago, at 18:20 UTC
Wind 6 kt from the East/Southeast
Temperature 9°C
Humidity 61%
Pressure 1025 hPa
Visibility 10 km or more

METAR: EGPI 261820Z AUTO 12006KT 9999 NCD 09/02 Q1025

Time: 19:56 (18:56 UTC)

Forecast

The report was made 4 hours and 59 minutes ago, at 13:57 UTC
Forecast valid from 26 at 15 UTC to 26 at 18 UTC
Wind 5 kt from variable directions
Visibility 10 km or more
no clouds below 1500 m and no cumulonimbus

TAF: EGPI 261357Z 2615/2618 VRB05KT CAVOK

Weather observations and forecasts of more than 4000 airports (METAR and TAF reports).

The available stations are represented by yellow and red dots on the map.

Hover mouse over dot to see the name of the station.

Then click to see weather observations and forecasts.

To change the map : click on the green buttons with a black cross to zoom in, on the green button with a dash to zoom out, or on the green arrows for adjacent maps.


METAR-TAF: